createdAt,value
2019-02-28T00:00:40.805Z,4.81
2019-02-28T00:01:36.031Z,4.75
2019-02-28T00:02:21.563Z,4.75
2019-02-28T00:02:53.914Z,4.75
2019-02-28T00:03:27.451Z,4.75
2019-02-28T00:04:00.467Z,4.75
2019-02-28T00:04:33.265Z,4.75
2019-02-28T00:05:06.865Z,4.75
2019-02-28T00:05:40.257Z,4.75
2019-02-28T00:06:13.221Z,4.75
2019-02-28T00:06:46.240Z,4.75
2019-02-28T00:07:19.205Z,4.75
2019-02-28T00:07:52.095Z,4.75
2019-02-28T00:08:25.301Z,4.75
2019-02-28T00:08:58.207Z,4.69
2019-02-28T00:09:31.163Z,4.69
2019-02-28T00:10:05.545Z,4.69
2019-02-28T00:10:38.696Z,4.69
2019-02-28T00:11:11.709Z,4.69
2019-02-28T00:11:46.421Z,4.69
2019-02-28T00:12:19.539Z,4.69
2019-02-28T00:12:52.576Z,4.69
2019-02-28T00:13:25.485Z,4.69
2019-02-28T00:13:58.427Z,4.69
2019-02-28T00:14:31.309Z,4.69
2019-02-28T00:15:04.785Z,4.69
2019-02-28T00:15:37.804Z,4.69
2019-02-28T00:16:10.933Z,4.69
2019-02-28T00:16:43.973Z,4.69
2019-02-28T00:17:17.923Z,4.69
2019-02-28T00:17:50.921Z,4.69
2019-02-28T00:18:24.133Z,4.69
2019-02-28T00:18:57.180Z,4.69
2019-02-28T00:19:30.197Z,4.69
2019-02-28T00:20:03.756Z,4.69
2019-02-28T00:20:36.935Z,4.69
2019-02-28T00:21:09.961Z,4.69
2019-02-28T00:21:42.935Z,4.69
2019-02-28T00:22:15.940Z,4.69
2019-02-28T00:22:49.468Z,4.69
2019-02-28T00:23:22.838Z,4.69
2019-02-28T00:23:57.368Z,4.69
2019-02-28T00:24:30.810Z,4.69
2019-02-28T00:25:05.065Z,4.69
2019-02-28T00:25:38.664Z,4.75
2019-02-28T00:26:12.377Z,4.75
2019-02-28T00:26:47.649Z,4.75
2019-02-28T00:27:21.959Z,4.75
2019-02-28T00:27:55.199Z,4.69
2019-02-28T00:28:29.440Z,4.69
2019-02-28T00:29:02.432Z,4.69
2019-02-28T00:29:35.401Z,4.69
2019-02-28T00:30:08.576Z,4.69
2019-02-28T00:30:41.693Z,4.75
2019-02-28T00:31:15.444Z,4.75
2019-02-28T00:31:49.900Z,4.75
2019-02-28T00:32:24.853Z,4.75
2019-02-28T00:32:59.317Z,4.75
2019-02-28T00:33:33.073Z,4.69
2019-02-28T00:34:06.126Z,4.69
2019-02-28T00:34:39.199Z,4.69
2019-02-28T00:35:14.034Z,4.69
2019-02-28T00:35:47.092Z,4.69
2019-02-28T00:36:20.162Z,4.62
2019-02-28T00:36:54.036Z,4.62
2019-02-28T00:37:27.168Z,4.62
2019-02-28T00:38:00.191Z,4.62
2019-02-28T00:38:33.008Z,4.62
2019-02-28T00:39:06.291Z,4.56
2019-02-28T00:39:41.349Z,4.56
2019-02-28T00:40:14.347Z,4.56
2019-02-28T00:40:48.954Z,4.56
2019-02-28T00:41:22.055Z,4.56
2019-02-28T00:41:55.102Z,4.56
2019-02-28T00:42:28.115Z,4.56
2019-02-28T00:43:01.471Z,4.50
2019-02-28T00:43:34.463Z,4.50
2019-02-28T00:44:07.431Z,4.50
2019-02-28T00:44:40.345Z,4.50
2019-02-28T00:45:13.518Z,4.50
2019-02-28T00:45:46.363Z,4.50
2019-02-28T00:46:19.435Z,4.50
2019-02-28T00:46:52.447Z,4.50
2019-02-28T00:47:25.511Z,4.50
2019-02-28T00:47:58.486Z,4.50
2019-02-28T00:48:31.337Z,4.50
2019-02-28T00:49:04.401Z,4.50
2019-02-28T00:49:37.664Z,4.50
2019-02-28T00:50:10.820Z,4.50
2019-02-28T00:50:43.883Z,4.50
2019-02-28T00:51:16.939Z,4.44
2019-02-28T00:51:49.954Z,4.50
2019-02-28T00:52:23.031Z,4.44
2019-02-28T00:52:56.103Z,4.44
2019-02-28T00:53:29.089Z,4.44
2019-02-28T00:54:02.146Z,4.44
2019-02-28T00:54:35.143Z,4.44
2019-02-28T00:55:08.347Z,4.44
2019-02-28T00:55:41.273Z,4.44
2019-02-28T00:56:17.479Z,4.44
2019-02-28T00:56:52.522Z,4.44
2019-02-28T00:57:26.595Z,4.37
2019-02-28T00:57:59.537Z,4.44
2019-02-28T00:58:32.507Z,4.37
2019-02-28T00:59:05.509Z,4.37
2019-02-28T00:59:38.593Z,4.37
2019-02-28T01:00:12.135Z,4.37
2019-02-28T01:00:45.215Z,4.37
2019-02-28T01:01:18.235Z,4.31
2019-02-28T01:01:51.293Z,4.31
2019-02-28T01:02:24.197Z,4.31
2019-02-28T01:02:58.046Z,4.31
2019-02-28T01:03:31.029Z,4.31
2019-02-28T01:04:04.300Z,4.25
2019-02-28T01:04:37.327Z,4.25
2019-02-28T01:05:10.507Z,4.25
2019-02-28T01:05:45.256Z,4.25
2019-02-28T01:06:18.271Z,4.25
2019-02-28T01:06:51.192Z,4.19
2019-02-28T01:07:24.327Z,4.19
2019-02-28T01:07:57.213Z,4.19
2019-02-28T01:08:30.415Z,4.19
2019-02-28T01:09:06.841Z,4.19
2019-02-28T01:09:40.845Z,4.19
2019-02-28T01:10:13.943Z,4.19
2019-02-28T01:10:48.121Z,4.19
2019-02-28T01:11:21.037Z,4.19
2019-02-28T01:11:54.083Z,4.19
2019-02-28T01:12:27.071Z,4.19
2019-02-28T01:13:00.098Z,4.19
2019-02-28T01:13:33.137Z,4.19
2019-02-28T01:14:06.140Z,4.19
2019-02-28T01:14:39.168Z,4.19
2019-02-28T01:15:13.389Z,4.19
2019-02-28T01:15:46.448Z,4.19
2019-02-28T01:16:20.101Z,4.19
2019-02-28T01:16:53.680Z,4.12
2019-02-28T01:17:27.438Z,4.12
2019-02-28T01:18:01.542Z,4.12
2019-02-28T01:18:35.374Z,4.12
2019-02-28T01:19:09.087Z,4.12
2019-02-28T01:19:43.082Z,4.12
2019-02-28T01:20:16.658Z,4.12
2019-02-28T01:20:50.735Z,4.12
2019-02-28T01:21:24.580Z,4.12
2019-02-28T01:21:57.639Z,4.12
2019-02-28T01:22:30.747Z,4.12
2019-02-28T01:23:03.839Z,4.12
2019-02-28T01:23:36.911Z,4.12
2019-02-28T01:24:10.030Z,4.12
2019-02-28T01:24:42.933Z,4.12
2019-02-28T01:25:16.121Z,4.06
2019-02-28T01:25:50.157Z,4.06
2019-02-28T01:26:23.163Z,4.06
2019-02-28T01:26:56.217Z,4.06
2019-02-28T01:27:29.339Z,4.06
2019-02-28T01:28:02.397Z,4.06
2019-02-28T01:28:35.640Z,4.12
2019-02-28T01:29:08.469Z,4.12
2019-02-28T01:29:41.317Z,4.19
2019-02-28T01:30:14.472Z,4.19
2019-02-28T01:30:47.463Z,4.19
2019-02-28T01:31:20.396Z,4.19
2019-02-28T01:31:53.303Z,4.19
2019-02-28T01:32:26.334Z,4.19
2019-02-28T01:32:59.251Z,4.19
2019-02-28T01:33:32.215Z,4.19
2019-02-28T01:34:05.214Z,4.25
2019-02-28T01:34:38.242Z,4.25
2019-02-28T01:35:11.371Z,4.25
2019-02-28T01:35:45.293Z,4.25
2019-02-28T01:36:18.405Z,4.25
2019-02-28T01:36:51.451Z,4.19
2019-02-28T01:37:24.418Z,4.19
2019-02-28T01:37:57.315Z,4.12
2019-02-28T01:38:30.344Z,4.12
2019-02-28T01:39:06.591Z,4.12
2019-02-28T01:39:41.496Z,4.12
2019-02-28T01:40:14.631Z,4.06
2019-02-28T01:40:49.342Z,4.06
2019-02-28T01:41:22.411Z,4.00
2019-02-28T01:41:55.471Z,4.00
2019-02-28T01:42:28.661Z,4.00
2019-02-28T01:43:01.776Z,4.00
2019-02-28T01:43:34.821Z,3.94
2019-02-28T01:44:07.850Z,3.94
2019-02-28T01:44:40.932Z,3.94
2019-02-28T01:45:14.101Z,3.94
2019-02-28T01:45:47.071Z,3.87
2019-02-28T01:46:20.065Z,3.87
2019-02-28T01:46:53.097Z,3.87
2019-02-28T01:47:26.001Z,3.87
2019-02-28T01:47:59.111Z,3.81
2019-02-28T01:48:32.122Z,3.81
2019-02-28T01:49:05.095Z,3.81
2019-02-28T01:49:38.175Z,3.75
2019-02-28T01:50:11.428Z,3.75
2019-02-28T01:50:44.438Z,3.75
2019-02-28T01:51:17.274Z,3.75
2019-02-28T01:51:50.273Z,3.75
2019-02-28T01:52:23.414Z,3.69
2019-02-28T01:52:56.422Z,3.69
2019-02-28T01:53:29.440Z,3.69
2019-02-28T01:54:02.555Z,3.69
2019-02-28T01:54:35.461Z,3.69
2019-02-28T01:55:08.607Z,3.62
2019-02-28T01:55:41.746Z,3.62
2019-02-28T01:56:14.737Z,3.62
2019-02-28T01:56:48.747Z,3.62
2019-02-28T01:57:21.659Z,3.62
2019-02-28T01:57:54.603Z,3.62
2019-02-28T01:58:27.525Z,3.62
2019-02-28T01:59:00.454Z,3.62
2019-02-28T01:59:33.464Z,3.56
2019-02-28T02:00:09.973Z,3.56
2019-02-28T02:00:43.187Z,3.56
2019-02-28T02:01:16.113Z,3.56
2019-02-28T02:01:49.040Z,3.56
2019-02-28T02:02:22.095Z,3.50
2019-02-28T02:02:55.005Z,3.50
2019-02-28T02:03:27.815Z,3.50
2019-02-28T02:04:01.029Z,3.50
2019-02-28T02:04:33.929Z,3.50
2019-02-28T02:05:07.117Z,3.44
2019-02-28T02:05:40.143Z,3.44
2019-02-28T02:06:13.165Z,3.44
2019-02-28T02:06:46.497Z,3.44
2019-02-28T02:07:19.409Z,3.44
2019-02-28T02:07:52.545Z,3.44
2019-02-28T02:08:25.453Z,3.44
2019-02-28T02:08:58.452Z,3.37
2019-02-28T02:09:31.567Z,3.37
2019-02-28T02:10:13.205Z,3.37
2019-02-28T02:10:46.132Z,3.37
2019-02-28T02:11:19.063Z,3.37
2019-02-28T02:11:52.276Z,3.37
2019-02-28T02:12:25.133Z,3.37
2019-02-28T02:12:58.071Z,3.37
2019-02-28T02:13:30.993Z,3.37
2019-02-28T02:14:04.145Z,3.31
2019-02-28T02:14:37.171Z,3.31
2019-02-28T02:15:10.141Z,3.31
2019-02-28T02:15:43.791Z,3.31
2019-02-28T02:16:16.725Z,3.25
2019-02-28T02:16:49.582Z,3.25
2019-02-28T02:17:22.759Z,3.25
2019-02-28T02:17:55.823Z,3.19
2019-02-28T02:18:28.806Z,3.19
2019-02-28T02:19:01.829Z,3.19
2019-02-28T02:19:34.760Z,3.19
2019-02-28T02:20:08.669Z,3.19
2019-02-28T02:20:43.305Z,3.19
2019-02-28T02:21:16.333Z,3.19
2019-02-28T02:21:49.477Z,3.12
2019-02-28T02:22:22.430Z,3.12
2019-02-28T02:22:55.379Z,3.12
2019-02-28T02:23:28.210Z,3.12
2019-02-28T02:24:01.017Z,3.12
2019-02-28T02:24:34.029Z,3.12
2019-02-28T02:25:07.731Z,3.12
2019-02-28T02:25:40.821Z,3.06
2019-02-28T02:26:13.981Z,3.06
2019-02-28T02:26:46.899Z,3.06
2019-02-28T02:27:20.386Z,3.06
2019-02-28T02:27:54.036Z,3.06
2019-02-28T02:28:27.882Z,3.06
2019-02-28T02:29:01.818Z,3.06
2019-02-28T02:29:36.283Z,3.06
2019-02-28T02:30:16.181Z,3.06
2019-02-28T02:30:50.950Z,3.00
2019-02-28T02:31:28.861Z,3.00
2019-02-28T02:32:01.292Z,3.00
2019-02-28T02:32:38.729Z,3.00
2019-02-28T02:33:14.404Z,3.00
2019-02-28T02:33:51.170Z,3.00
2019-02-28T02:34:20.100Z,3.00
2019-02-28T02:34:53.003Z,3.00
2019-02-28T02:35:26.009Z,3.00
2019-02-28T02:35:59.010Z,3.00
2019-02-28T02:36:31.837Z,3.00
2019-02-28T02:37:04.930Z,3.00
2019-02-28T02:37:38.710Z,3.00
2019-02-28T02:38:11.635Z,3.00
2019-02-28T02:38:46.220Z,3.00
2019-02-28T02:39:19.137Z,3.00
2019-02-28T02:39:52.778Z,3.00
2019-02-28T02:40:25.805Z,3.00
2019-02-28T02:41:00.530Z,3.00
2019-02-28T02:41:34.666Z,3.00
2019-02-28T02:42:11.336Z,3.00
2019-02-28T02:42:47.662Z,3.00
2019-02-28T02:43:21.952Z,3.06
2019-02-28T02:43:54.844Z,3.06
2019-02-28T02:44:31.882Z,3.06
2019-02-28T02:45:05.212Z,3.06
2019-02-28T02:45:41.896Z,3.06
2019-02-28T02:46:19.847Z,3.06
2019-02-28T02:46:47.303Z,3.12
2019-02-28T02:47:20.351Z,3.06
2019-02-28T02:47:53.281Z,3.12
2019-02-28T02:48:26.333Z,3.06
2019-02-28T02:48:59.674Z,3.06
2019-02-28T02:49:32.760Z,3.06
2019-02-28T02:50:08.952Z,3.06
2019-02-28T02:50:42.164Z,3.06
2019-02-28T02:51:15.095Z,3.06
2019-02-28T02:51:50.513Z,3.06
2019-02-28T02:52:30.028Z,3.06
2019-02-28T02:53:04.891Z,3.06
2019-02-28T02:53:32.874Z,3.06
2019-02-28T02:54:05.746Z,3.00
2019-02-28T02:54:38.631Z,3.00
2019-02-28T02:55:11.918Z,3.00
2019-02-28T02:55:45.102Z,3.00
2019-02-28T02:56:18.143Z,3.00
2019-02-28T02:56:51.140Z,3.00
2019-02-28T02:57:24.159Z,3.00
2019-02-28T02:57:56.993Z,3.00
2019-02-28T02:58:30.031Z,3.00
2019-02-28T02:59:03.140Z,3.00
2019-02-28T02:59:39.099Z,3.00
2019-02-28T03:00:15.047Z,3.00
2019-02-28T03:00:51.282Z,3.00
2019-02-28T03:01:24.364Z,3.00
2019-02-28T03:01:57.531Z,3.00
2019-02-28T03:02:33.234Z,3.00
2019-02-28T03:03:06.482Z,3.00
2019-02-28T03:03:44.196Z,3.00
2019-02-28T03:04:21.404Z,3.00
2019-02-28T03:04:49.998Z,3.00
2019-02-28T03:05:22.928Z,3.00
2019-02-28T03:05:56.005Z,3.00
2019-02-28T03:06:28.940Z,3.00
2019-02-28T03:07:02.063Z,3.00
2019-02-28T03:07:35.157Z,2.94
2019-02-28T03:08:08.047Z,2.94
2019-02-28T03:08:40.892Z,2.94
2019-02-28T03:09:13.782Z,2.94
2019-02-28T03:09:46.820Z,2.94
2019-02-28T03:10:20.081Z,2.94
2019-02-28T03:10:53.304Z,2.94
2019-02-28T03:11:26.467Z,2.94
2019-02-28T03:11:59.532Z,2.87
2019-02-28T03:12:32.994Z,2.87
2019-02-28T03:13:06.618Z,2.87
2019-02-28T03:13:43.602Z,2.87
2019-02-28T03:14:17.274Z,2.87
2019-02-28T03:14:50.782Z,2.87
2019-02-28T03:15:26.875Z,2.87
2019-02-28T03:16:00.396Z,2.87
2019-02-28T03:16:34.649Z,2.87
2019-02-28T03:17:11.794Z,2.87
2019-02-28T03:17:46.519Z,2.81
2019-02-28T03:18:20.484Z,2.81
2019-02-28T03:18:56.885Z,2.81
2019-02-28T03:19:33.139Z,2.81
2019-02-28T03:20:07.474Z,2.81
2019-02-28T03:20:41.173Z,2.81
2019-02-28T03:21:15.271Z,2.81
2019-02-28T03:21:52.650Z,2.81
2019-02-28T03:22:28.317Z,2.81
2019-02-28T03:23:02.240Z,2.81
2019-02-28T03:23:38.198Z,2.81
2019-02-28T03:24:14.581Z,2.81
2019-02-28T03:24:42.672Z,2.81
2019-02-28T03:25:15.740Z,2.75
2019-02-28T03:25:48.630Z,2.81
2019-02-28T03:26:21.593Z,2.81
2019-02-28T03:26:54.583Z,2.81
2019-02-28T03:27:27.493Z,2.81
2019-02-28T03:28:00.374Z,2.75
2019-02-28T03:28:33.473Z,2.75
2019-02-28T03:29:07.955Z,2.75
2019-02-28T03:29:43.940Z,2.75
2019-02-28T03:30:26.356Z,2.75
2019-02-28T03:30:52.462Z,2.75
2019-02-28T03:31:25.356Z,2.75
2019-02-28T03:32:00.050Z,2.75
2019-02-28T03:32:39.618Z,2.75
2019-02-28T03:33:07.795Z,2.75
2019-02-28T03:33:40.700Z,2.75
2019-02-28T03:34:14.309Z,2.75
2019-02-28T03:34:54.663Z,2.75
2019-02-28T03:35:22.156Z,2.75
2019-02-28T03:35:55.120Z,2.75
2019-02-28T03:36:28.163Z,2.75
2019-02-28T03:37:01.049Z,2.75
2019-02-28T03:37:34.587Z,2.81
2019-02-28T03:38:11.555Z,2.81
2019-02-28T03:38:48.281Z,2.87
2019-02-28T03:39:24.120Z,2.81
2019-02-28T03:39:52.384Z,2.87
2019-02-28T03:40:25.369Z,2.87
2019-02-28T03:40:58.487Z,2.81
2019-02-28T03:41:31.565Z,2.87
2019-02-28T03:42:04.872Z,2.87
2019-02-28T03:42:37.983Z,2.81
2019-02-28T03:43:11.056Z,2.87
2019-02-28T03:43:44.252Z,2.81
2019-02-28T03:44:21.326Z,2.81
2019-02-28T03:44:56.747Z,2.81
2019-02-28T03:45:33.691Z,2.81
2019-02-28T03:46:02.011Z,2.81
2019-02-28T03:46:35.164Z,2.81
2019-02-28T03:47:08.231Z,2.81
2019-02-28T03:47:41.265Z,2.81
2019-02-28T03:48:14.744Z,2.87
2019-02-28T03:48:47.877Z,2.87
2019-02-28T03:49:20.800Z,2.87
2019-02-28T03:49:53.854Z,2.87
2019-02-28T03:50:26.940Z,2.87
2019-02-28T03:50:59.911Z,2.87
2019-02-28T03:51:32.896Z,2.87
2019-02-28T03:52:06.937Z,2.87
2019-02-28T03:52:43.952Z,2.87
2019-02-28T03:53:19.256Z,2.81
2019-02-28T03:53:55.582Z,2.81
2019-02-28T03:54:28.821Z,2.81
2019-02-28T03:55:04.738Z,2.81
2019-02-28T03:55:40.896Z,2.81
2019-02-28T03:56:14.276Z,2.81
2019-02-28T03:56:52.794Z,2.81
2019-02-28T03:57:27.738Z,2.81
2019-02-28T03:58:04.086Z,2.87
2019-02-28T03:58:32.619Z,2.87
2019-02-28T03:59:05.634Z,2.87
2019-02-28T03:59:39.011Z,2.81
2019-02-28T04:00:15.155Z,2.87
2019-02-28T04:00:48.098Z,2.94
2019-02-28T04:01:21.093Z,2.94
2019-02-28T04:01:54.116Z,2.94
2019-02-28T04:02:27.124Z,2.94
2019-02-28T04:03:00.365Z,2.94
2019-02-28T04:03:34.671Z,2.94
2019-02-28T04:04:12.246Z,3.00
2019-02-28T04:04:48.412Z,3.06
2019-02-28T04:05:17.850Z,3.06
2019-02-28T04:05:51.899Z,3.12
2019-02-28T04:06:24.927Z,3.12
2019-02-28T04:06:57.982Z,3.12
2019-02-28T04:07:30.965Z,3.12
2019-02-28T04:08:04.097Z,3.12
2019-02-28T04:08:37.025Z,3.12
2019-02-28T04:09:09.927Z,3.12
2019-02-28T04:09:44.144Z,3.12
2019-02-28T04:10:22.037Z,3.12
2019-02-28T04:10:54.727Z,3.06
2019-02-28T04:11:31.163Z,3.06
2019-02-28T04:12:07.235Z,3.06
2019-02-28T04:12:44.893Z,3.06
2019-02-28T04:13:12.183Z,3.00
2019-02-28T04:13:45.214Z,3.00
2019-02-28T04:14:18.220Z,3.00
2019-02-28T04:14:51.260Z,3.00
2019-02-28T04:15:24.356Z,3.00
2019-02-28T04:16:08.467Z,3.00
2019-02-28T04:16:33.820Z,3.00
2019-02-28T04:17:06.780Z,3.00
2019-02-28T04:17:39.891Z,3.00
2019-02-28T04:18:14.451Z,2.94
2019-02-28T04:18:47.394Z,2.94
2019-02-28T04:19:22.576Z,2.94
2019-02-28T04:20:00.046Z,2.94
2019-02-28T04:20:36.080Z,2.94
2019-02-28T04:21:04.890Z,2.94
2019-02-28T04:21:37.842Z,2.94
2019-02-28T04:22:10.750Z,2.87
2019-02-28T04:22:43.772Z,2.87
2019-02-28T04:23:16.834Z,2.87
2019-02-28T04:23:49.806Z,2.87
2019-02-28T04:24:22.812Z,2.87
2019-02-28T04:24:55.758Z,2.87
2019-02-28T04:25:28.736Z,2.87
2019-02-28T04:26:01.695Z,2.87
2019-02-28T04:26:34.499Z,2.87
2019-02-28T04:27:07.922Z,2.87
2019-02-28T04:27:41.846Z,2.87
2019-02-28T04:28:18.613Z,2.87
2019-02-28T04:28:53.832Z,2.87
2019-02-28T04:29:30.092Z,2.87
2019-02-28T04:30:06.400Z,2.87
2019-02-28T04:30:35.193Z,2.87
2019-02-28T04:31:08.086Z,2.81
2019-02-28T04:31:42.065Z,2.81
2019-02-28T04:32:14.959Z,2.81
2019-02-28T04:32:49.652Z,2.81
2019-02-28T04:33:22.560Z,2.81
2019-02-28T04:33:55.433Z,2.81
2019-02-28T04:34:28.331Z,2.81
2019-02-28T04:35:01.397Z,2.81
2019-02-28T04:35:34.319Z,2.81
2019-02-28T04:36:07.383Z,2.81
2019-02-28T04:36:40.494Z,2.81
2019-02-28T04:37:13.404Z,2.81
2019-02-28T04:37:47.312Z,2.81
2019-02-28T04:38:22.975Z,2.81
2019-02-28T04:38:55.781Z,2.81
2019-02-28T04:39:28.708Z,2.81
2019-02-28T04:40:01.603Z,2.81
2019-02-28T04:40:34.743Z,2.75
2019-02-28T04:41:07.533Z,2.81
2019-02-28T04:41:40.592Z,2.81
2019-02-28T04:42:14.907Z,2.81
2019-02-28T04:42:49.063Z,2.81
2019-02-28T04:43:21.943Z,2.81
2019-02-28T04:43:54.883Z,2.81
2019-02-28T04:44:27.741Z,2.81
2019-02-28T04:45:00.610Z,2.81
2019-02-28T04:45:33.631Z,2.81
2019-02-28T04:46:06.828Z,2.81
2019-02-28T04:46:39.835Z,2.81
2019-02-28T04:47:12.901Z,2.81
2019-02-28T04:47:45.785Z,2.81
2019-02-28T04:48:20.257Z,2.87
2019-02-28T04:48:53.169Z,2.87
2019-02-28T04:49:26.247Z,2.87
2019-02-28T04:49:59.236Z,2.87
2019-02-28T04:50:32.306Z,2.81
2019-02-28T04:51:05.808Z,2.81
2019-02-28T04:51:40.144Z,2.81
2019-02-28T04:52:14.013Z,2.81
2019-02-28T04:52:48.215Z,2.81
2019-02-28T04:53:21.429Z,2.81
2019-02-28T04:53:55.365Z,2.81
2019-02-28T04:54:28.785Z,2.81
2019-02-28T04:55:02.909Z,2.81
2019-02-28T04:55:37.922Z,2.81
2019-02-28T04:56:12.149Z,2.81
2019-02-28T04:56:45.702Z,2.81
2019-02-28T04:57:20.779Z,2.81
2019-02-28T04:57:54.123Z,2.81
2019-02-28T04:58:26.957Z,2.81
2019-02-28T04:59:00.364Z,2.87
2019-02-28T04:59:34.341Z,2.87
2019-02-28T05:00:08.219Z,2.87
2019-02-28T05:00:41.276Z,2.87
2019-02-28T05:01:14.263Z,2.87
2019-02-28T05:01:47.137Z,2.87
2019-02-28T05:02:20.708Z,2.94
2019-02-28T05:02:55.003Z,3.00
2019-02-28T05:03:29.255Z,2.94
2019-02-28T05:04:03.052Z,2.94
2019-02-28T05:04:36.813Z,2.94
2019-02-28T05:05:12.672Z,2.94
2019-02-28T05:05:46.933Z,2.94
2019-02-28T05:06:21.165Z,2.94
2019-02-28T05:06:55.265Z,2.94
2019-02-28T05:07:29.684Z,2.94
2019-02-28T05:08:05.565Z,2.94
2019-02-28T05:08:39.633Z,2.94
2019-02-28T05:09:14.486Z,2.94
2019-02-28T05:09:48.250Z,2.94
2019-02-28T05:10:22.850Z,2.94
2019-02-28T05:10:56.832Z,2.94
2019-02-28T05:11:30.563Z,2.94
2019-02-28T05:12:05.236Z,2.94
2019-02-28T05:12:40.005Z,2.94
2019-02-28T05:13:14.316Z,2.94
2019-02-28T05:13:48.707Z,2.94
2019-02-28T05:14:23.796Z,2.94
2019-02-28T05:14:58.528Z,2.94
2019-02-28T05:15:37.316Z,2.94
2019-02-28T05:16:09.291Z,2.94
2019-02-28T05:16:46.866Z,2.94
2019-02-28T05:17:19.360Z,2.94
2019-02-28T05:17:53.168Z,2.94
2019-02-28T05:18:27.538Z,2.94
2019-02-28T05:19:01.565Z,2.87
2019-02-28T05:19:35.857Z,2.94
2019-02-28T05:20:10.818Z,2.94
2019-02-28T05:20:45.921Z,2.94
2019-02-28T05:21:19.523Z,2.87
2019-02-28T05:21:53.569Z,2.87
2019-02-28T05:22:27.613Z,2.87
2019-02-28T05:23:02.927Z,2.87
2019-02-28T05:23:36.744Z,2.87
2019-02-28T05:24:09.852Z,2.87
2019-02-28T05:24:43.725Z,2.87
2019-02-28T05:25:18.705Z,2.87
2019-02-28T05:25:52.646Z,2.87
2019-02-28T05:26:26.277Z,2.87
2019-02-28T05:27:01.270Z,2.81
2019-02-28T05:27:35.343Z,2.81
2019-02-28T05:28:09.277Z,2.81
2019-02-28T05:28:42.201Z,2.81
2019-02-28T05:29:15.019Z,2.81
2019-02-28T05:29:48.133Z,2.81
2019-02-28T05:30:21.135Z,2.81
2019-02-28T05:30:54.219Z,2.81
2019-02-28T05:31:28.033Z,2.81
2019-02-28T05:32:01.923Z,2.81
2019-02-28T05:32:35.577Z,2.81
2019-02-28T05:33:09.276Z,2.81
2019-02-28T05:33:42.931Z,2.81
2019-02-28T05:34:16.752Z,2.81
2019-02-28T05:34:51.091Z,2.81
2019-02-28T05:35:26.633Z,2.81
2019-02-28T05:36:00.151Z,2.75
2019-02-28T05:36:37.938Z,2.75
2019-02-28T05:37:12.493Z,2.75
2019-02-28T05:37:48.211Z,2.75
2019-02-28T05:38:21.417Z,2.75
2019-02-28T05:38:56.682Z,2.75
2019-02-28T05:39:30.958Z,2.75
2019-02-28T05:40:06.944Z,2.75
2019-02-28T05:40:41.302Z,2.75
2019-02-28T05:41:15.290Z,2.75
2019-02-28T05:41:49.443Z,2.75
2019-02-28T05:42:24.058Z,2.75
2019-02-28T05:42:58.284Z,2.75
2019-02-28T05:43:32.884Z,2.69
2019-02-28T05:44:07.192Z,2.69
2019-02-28T05:44:40.928Z,2.69
2019-02-28T05:45:15.501Z,2.69
2019-02-28T05:45:49.965Z,2.69
2019-02-28T05:46:23.746Z,2.69
2019-02-28T05:46:58.698Z,2.69
2019-02-28T05:47:32.458Z,2.69
2019-02-28T05:48:06.132Z,2.69
2019-02-28T05:48:39.478Z,2.69
2019-02-28T05:49:12.738Z,2.62
2019-02-28T05:49:45.755Z,2.62
2019-02-28T05:50:19.883Z,2.62
2019-02-28T05:50:54.160Z,2.62
2019-02-28T05:51:27.180Z,2.62
2019-02-28T05:52:01.507Z,2.62
2019-02-28T05:52:36.220Z,2.62
2019-02-28T05:53:10.101Z,2.62
2019-02-28T05:53:43.270Z,2.62
2019-02-28T05:54:17.205Z,2.62
2019-02-28T05:54:51.452Z,2.62
2019-02-28T05:55:25.499Z,2.62
2019-02-28T05:55:59.919Z,2.69
2019-02-28T05:56:34.071Z,2.69
2019-02-28T05:57:08.058Z,2.69
2019-02-28T05:57:43.533Z,2.69
2019-02-28T05:58:18.398Z,2.69
2019-02-28T05:58:52.476Z,2.69
2019-02-28T05:59:27.533Z,2.69
2019-02-28T06:00:01.923Z,2.69
2019-02-28T06:00:37.688Z,2.69
2019-02-28T06:01:11.959Z,2.69
2019-02-28T06:01:47.101Z,2.69
2019-02-28T06:02:22.513Z,2.69
2019-02-28T06:02:58.100Z,2.69
2019-02-28T06:03:30.488Z,2.69
2019-02-28T06:04:05.139Z,2.69
2019-02-28T06:04:38.147Z,2.69
2019-02-28T06:05:12.037Z,2.62
2019-02-28T06:05:46.370Z,2.62
2019-02-28T06:06:20.900Z,2.62
2019-02-28T06:06:54.632Z,2.62
2019-02-28T06:07:29.472Z,2.62
2019-02-28T06:08:03.585Z,2.62
2019-02-28T06:08:39.038Z,2.62
2019-02-28T06:09:13.679Z,2.62
2019-02-28T06:09:48.701Z,2.62
2019-02-28T06:10:24.666Z,2.62
2019-02-28T06:11:00.707Z,2.56
2019-02-28T06:11:35.571Z,2.56
2019-02-28T06:12:09.325Z,2.56
2019-02-28T06:12:43.683Z,2.56
2019-02-28T06:13:19.028Z,2.56
2019-02-28T06:13:52.843Z,2.56
2019-02-28T06:14:27.705Z,2.56
2019-02-28T06:15:03.522Z,2.56
2019-02-28T06:15:37.255Z,2.56
2019-02-28T06:16:12.345Z,2.56
2019-02-28T06:16:46.872Z,2.56
2019-02-28T06:17:21.870Z,2.50
2019-02-28T06:17:55.749Z,2.50
2019-02-28T06:18:32.679Z,2.56
2019-02-28T06:19:04.539Z,2.50
2019-02-28T06:19:40.170Z,2.50
2019-02-28T06:20:16.942Z,2.50
2019-02-28T06:20:51.532Z,2.50
2019-02-28T06:21:24.459Z,2.50
2019-02-28T06:21:59.511Z,2.50
2019-02-28T06:22:36.237Z,2.50
2019-02-28T06:23:09.345Z,2.50
2019-02-28T06:23:43.662Z,2.50
2019-02-28T06:24:16.609Z,2.50
2019-02-28T06:24:49.629Z,2.44
2019-02-28T06:25:25.043Z,2.44
2019-02-28T06:25:59.309Z,2.50
2019-02-28T06:26:33.009Z,2.44
2019-02-28T06:27:06.601Z,2.44
2019-02-28T06:27:41.821Z,2.50
2019-02-28T06:28:15.720Z,2.50
2019-02-28T06:28:48.793Z,2.50
2019-02-28T06:29:21.755Z,2.50
2019-02-28T06:29:54.637Z,2.50
2019-02-28T06:30:27.905Z,2.50
2019-02-28T06:31:00.911Z,2.50
2019-02-28T06:31:34.509Z,2.50
2019-02-28T06:32:07.624Z,2.50
2019-02-28T06:32:40.690Z,2.50
2019-02-28T06:33:13.739Z,2.50
2019-02-28T06:33:46.775Z,2.50
2019-02-28T06:34:19.856Z,2.44
2019-02-28T06:34:52.845Z,2.44
2019-02-28T06:35:25.905Z,2.44
2019-02-28T06:35:58.810Z,2.44
2019-02-28T06:36:31.760Z,2.44
2019-02-28T06:37:04.687Z,2.44
2019-02-28T06:37:38.306Z,2.44
2019-02-28T06:38:12.015Z,2.44
2019-02-28T06:38:45.131Z,2.44
2019-02-28T06:39:18.269Z,2.44
2019-02-28T06:39:51.482Z,2.44
2019-02-28T06:40:24.447Z,2.44
2019-02-28T06:40:57.295Z,2.44
2019-02-28T06:41:30.197Z,2.44
2019-02-28T06:42:03.349Z,2.44
2019-02-28T06:42:36.421Z,2.44
2019-02-28T06:43:09.447Z,2.44
2019-02-28T06:43:44.243Z,2.44
2019-02-28T06:44:17.197Z,2.44
2019-02-28T06:44:50.114Z,2.50
2019-02-28T06:45:23.169Z,2.50
2019-02-28T06:45:56.061Z,2.50
2019-02-28T06:46:29.035Z,2.50
2019-02-28T06:47:01.853Z,2.50
2019-02-28T06:47:35.248Z,2.50
2019-02-28T06:48:08.253Z,2.50
2019-02-28T06:48:41.197Z,2.50
2019-02-28T06:49:14.109Z,2.50
2019-02-28T06:49:47.127Z,2.56
2019-02-28T06:50:20.163Z,2.56
2019-02-28T06:50:53.105Z,2.56
2019-02-28T06:51:25.997Z,2.56
2019-02-28T06:51:58.919Z,2.62
2019-02-28T06:52:31.888Z,2.62
2019-02-28T06:53:04.973Z,2.62
2019-02-28T06:53:39.947Z,2.62
2019-02-28T06:54:12.939Z,2.69
2019-02-28T06:54:45.891Z,2.69
2019-02-28T06:55:22.253Z,2.69
2019-02-28T06:55:55.175Z,2.75
2019-02-28T06:56:28.013Z,2.75
2019-02-28T06:57:00.909Z,2.75
2019-02-28T06:57:33.961Z,2.81
2019-02-28T06:58:06.804Z,2.81
2019-02-28T06:58:39.669Z,2.81
2019-02-28T06:59:12.581Z,2.81
2019-02-28T06:59:45.829Z,2.87
2019-02-28T07:00:20.031Z,2.87
2019-02-28T07:00:53.066Z,2.87
2019-02-28T07:01:26.414Z,2.94
2019-02-28T07:01:59.607Z,2.94
2019-02-28T07:02:32.425Z,3.00
2019-02-28T07:03:05.531Z,3.00
2019-02-28T07:03:38.921Z,3.00
2019-02-28T07:04:14.471Z,3.06
2019-02-28T07:04:49.474Z,3.06
2019-02-28T07:05:25.901Z,3.12
2019-02-28T07:06:01.137Z,3.19
2019-02-28T07:06:35.675Z,3.19
2019-02-28T07:07:10.194Z,3.25
2019-02-28T07:07:45.603Z,3.25
2019-02-28T07:08:17.388Z,3.31
2019-02-28T07:08:51.551Z,3.37
2019-02-28T07:09:24.455Z,3.37
2019-02-28T07:09:57.335Z,3.37
2019-02-28T07:10:31.467Z,3.44
2019-02-28T07:11:06.047Z,3.44
2019-02-28T07:11:39.065Z,3.50
2019-02-28T07:12:13.294Z,3.50
2019-02-28T07:12:46.345Z,3.50
2019-02-28T07:13:19.302Z,3.56
2019-02-28T07:13:52.233Z,3.56
2019-02-28T07:14:25.165Z,3.62
2019-02-28T07:14:58.170Z,3.62
2019-02-28T07:15:31.293Z,3.69
2019-02-28T07:16:04.457Z,3.75
2019-02-28T07:16:38.063Z,3.75
2019-02-28T07:17:12.285Z,3.87
2019-02-28T07:17:46.313Z,3.94
2019-02-28T07:18:20.210Z,4.00
2019-02-28T07:18:53.965Z,4.00
2019-02-28T07:19:27.077Z,4.06
2019-02-28T07:20:02.154Z,4.12
2019-02-28T07:20:36.119Z,4.12
2019-02-28T07:21:09.262Z,4.19
2019-02-28T07:21:43.881Z,4.19
2019-02-28T07:22:19.641Z,4.25
2019-02-28T07:22:55.537Z,4.25
2019-02-28T07:23:29.985Z,4.25
2019-02-28T07:24:02.426Z,4.25
2019-02-28T07:24:39.888Z,4.25
2019-02-28T07:25:13.900Z,4.25
2019-02-28T07:25:47.395Z,4.25
2019-02-28T07:26:21.415Z,4.25
2019-02-28T07:26:54.288Z,4.25
2019-02-28T07:27:29.716Z,4.25
2019-02-28T07:28:02.543Z,4.25
2019-02-28T07:28:37.413Z,4.25
2019-02-28T07:29:12.208Z,4.25
2019-02-28T07:29:45.117Z,4.25